Time;durP1;ratioP1;P1;durP2;ratioP2;P2;SDS_P1;SDS_P2;PMS_P1;PMS_P2;Temp;Humidity;BMP_temperature;BMP_pressure;BME280_temperature;BME280_humidity;BME280_pressure;Samples;Min_cycle;Max_cycle;Signal;HPM_P1;HPM_P2
2022/05/02 04:10:47;;;;;;;;;;;;;;;;;;;;;
2022/05/02 04:17:02;;;;;;;18.10;15.03;;;;;;;;;;5016591;28;20419;-96
2022/05/02 04:20:17;;;;;;;17.10;14.27;;;;;;;;;;5038214;28;20450;-95
2022/05/02 04:23:29;;;;;;;17.27;15.27;;;;;;;;;;5026119;28;20641;-96
2022/05/02 04:26:45;;;;;;;21.90;15.80;;;;;;;;;;4992317;28;20444;-95
2022/05/02 04:30:07;;;;;;;;;;;;;;;;;;;;;
2022/05/02 04:33:12;;;;;;;16.30;14.57;;;;;;;;;;5014594;28;20451;-95
2022/05/02 04:36:18;;;;;;;16.27;14.63;;;;;;;;;;5018058;28;20438;-94
2022/05/02 04:39:43;;;;;;;16.03;14.33;;;;;;;;;;5018740;28;20179;-96
2022/05/02 04:42:49;;;;;;;16.55;15.05;;;;;;;;;;5021994;28;20439;-96
2022/05/02 04:45:58;;;;;;;17.53;15.93;;;;;;;;;;5033458;28;20192;-90
2022/05/02 04:49:12;;;;;;;16.40;14.70;;;;;;;;;;5017759;28;20434;-93
2022/05/02 04:52:21;;;;;;;16.50;14.90;;;;;;;;;;5023670;28;20448;-93
2022/05/02 04:55:24;;;;;;;17.37;15.43;;;;;;;;;;5003362;28;20192;-91
2022/05/02 04:58:31;;;;;;;20.07;16.43;;;;;;;;;;5081290;23;20472;-92
2022/05/02 05:01:58;;;;;;;18.00;16.07;;;;;;;;;;5025794;28;20467;-96
2022/05/02 05:05:00;;;;;;;19.37;17.70;;;;;;;;;;5027007;28;20463;-95
2022/05/02 05:08:05;;;;;;;18.73;16.70;;;;;;;;;;5010494;28;20431;-95
2022/05/02 05:31:41;;;;;;;19.40;16.87;;;;;;;;;;4985637;28;20507;-93
2022/05/02 05:34:56;;;;;;;;;;;;;;;;;;;;;
2022/05/02 05:51:36;;;;;;;18.20;16.27;;;;;;;;;;4986879;28;20484;-91
2022/05/02 05:54:25;;;;;;;16.73;15.00;;;;;;;;;;4981582;28;20405;-94
2022/05/02 05:57:46;;;;;;;18.60;16.70;;;;;;;;;;4961154;28;20439;-92
2022/05/02 06:00:52;;;;;;;20.17;15.57;;;;;;;;;;4981837;28;20532;-91
2022/05/02 06:03:58;;;;;;;20.77;16.50;;;;;;;;;;4980490;28;20437;-89
2022/05/02 06:07:03;;;;;;;16.57;15.00;;;;;;;;;;4983820;28;20435;-93
2022/05/02 06:10:09;;;;;;;17.50;15.80;;;;;;;;;;4960319;28;20490;-90
2022/05/02 06:13:16;;;;;;;18.37;16.37;;;;;;;;;;4959626;29;20425;-89
2022/05/02 06:19:38;;;;;;;16.77;15.10;;;;;;;;;;4943238;28;20473;-92
2022/05/02 06:22:45;;;;;;;17.20;15.47;;;;;;;;;;4964677;28;20457;-93
2022/05/02 06:25:52;;;;;;;16.70;14.80;;;;;;;;;;4953118;28;20958;-89
2022/05/02 06:29:02;;;;;;;16.07;14.33;;;;;;;;;;4944906;29;20479;-94
2022/05/02 06:32:07;;;;;;;17.07;15.47;;;;;;;;;;4956741;29;20545;-92
2022/05/02 06:35:13;;;;;;;15.87;14.47;;;;;;;;;;4966457;28;20448;-93
2022/05/02 06:38:22;;;;;;;16.30;14.90;;;;;;;;;;4958824;28;20473;-93
2022/05/02 06:41:31;;;;;;;15.90;14.43;;;;;;;;;;4973703;28;20516;-92
2022/05/02 06:44:36;;;;;;;15.97;14.57;;;;;;;;;;4948566;28;20473;-93
2022/05/02 06:47:55;;;;;;;16.57;15.10;;;;;;;;;;4962465;28;20430;-92
2022/05/02 06:51:01;;;;;;;16.70;15.23;;;;;;;;;;4970113;28;20515;-92
2022/05/02 06:54:05;;;;;;;16.00;14.53;;;;;;;;;;4959906;29;20440;-94
2022/05/02 06:57:11;;;;;;;17.00;15.30;;;;;;;;;;4959395;28;20461;-93
2022/05/02 07:00:29;;;;;;;14.93;13.83;;;;;;;;;;4972082;28;20465;-93
2022/05/02 07:03:20;;;;;;;15.63;14.33;;;;;;;;;;4966398;28;20442;-92
2022/05/02 07:06:34;;;;;;;17.13;15.83;;;;;;;;;;4964944;28;20813;-93
2022/05/02 07:09:52;;;;;;;14.97;13.93;;;;;;;;;;4954786;28;20465;-92
2022/05/02 07:13:01;;;;;;;15.40;14.20;;;;;;;;;;4956081;29;20441;-92
2022/05/02 07:16:05;;;;;;;16.37;14.77;;;;;;;;;;4957985;28;20442;-92
2022/05/02 07:19:10;;;;;;;15.23;14.03;;;;;;;;;;4274131;28;10022879;-92
2022/05/02 07:21:58;;;;;;;16.33;15.03;;;;;;;;;;4958072;29;20276;-90
2022/05/02 07:24:42;;;;;;;16.70;15.50;;;;;;;;;;4956448;28;20441;-89
2022/05/02 07:27:47;;;;;;;15.73;14.47;;;;;;;;;;4956190;28;20849;-93
2022/05/02 07:30:59;;;;;;;17.30;15.80;;;;;;;;;;4964353;28;20513;-91
2022/05/02 07:34:02;;;;;;;15.17;13.87;;;;;;;;;;4953151;28;20450;-90
2022/05/02 07:37:11;;;;;;;16.80;15.10;;;;;;;;;;4953983;28;20862;-88
2022/05/02 07:40:17;;;;;;;16.07;14.67;;;;;;;;;;4953945;28;20453;-92
2022/05/02 07:43:23;;;;;;;17.63;14.37;;;;;;;;;;4961075;28;20596;-89
2022/05/02 07:46:28;;;;;;;15.10;14.00;;;;;;;;;;4958506;28;20859;-92
2022/05/02 07:49:41;;;;;;;15.83;14.63;;;;;;;;;;4960562;28;20683;-91
2022/05/02 07:52:46;;;;;;;16.60;15.00;;;;;;;;;;4938558;29;20480;-90
2022/05/02 07:55:52;;;;;;;15.57;13.97;;;;;;;;;;4966183;28;20927;-91
2022/05/02 07:58:58;;;;;;;15.70;14.43;;;;;;;;;;4958172;28;20948;-91
2022/05/02 08:02:05;;;;;;;14.87;13.77;;;;;;;;;;4959074;28;20430;-90
2022/05/02 08:05:10;;;;;;;15.03;13.93;;;;;;;;;;4963106;28;20450;-92
2022/05/02 08:08:16;;;;;;;15.30;13.93;;;;;;;;;;4948878;28;20458;-90
2022/05/02 08:11:22;;;;;;;16.17;14.87;;;;;;;;;;4947038;29;20540;-88
2022/05/02 08:14:28;;;;;;;15.50;14.30;;;;;;;;;;4954371;28;20430;-90
2022/05/02 08:17:20;;;;;;;16.27;14.73;;;;;;;;;;4956249;28;20488;-90
2022/05/02 08:20:09;;;;;;;14.73;13.50;;;;;;;;;;4949902;28;20498;-92
2022/05/02 08:29:16;;;;;;;15.10;13.90;;;;;;;;;;4964874;29;20523;-90
2022/05/02 08:31:55;;;;;;;13.07;12.17;;;;;;;;;;4941029;29;20465;-89
2022/05/02 08:34:35;;;;;;;12.60;11.60;;;;;;;;;;4966309;29;20430;-88
2022/05/02 08:37:11;;;;;;;13.47;12.40;;;;;;;;;;4967742;29;20426;-92
2022/05/02 08:42:49;;;;;;;13.10;12.20;;;;;;;;;;5164637;23;20542;-94
2022/05/02 08:45:46;;;;;;;11.67;10.70;;;;;;;;;;5485779;23;20514;-91
2022/05/02 08:49:32;;;;;;;11.87;11.10;;;;;;;;;;5020658;28;20420;-94
2022/05/02 08:51:58;;;;;;;13.13;11.97;;;;;;;;;;5033279;28;20533;-93
2022/05/02 08:55:02;;;;;;;11.97;11.20;;;;;;;;;;5034639;28;20497;-92
2022/05/02 09:11:37;;;;;;;12.07;10.97;;;;;;;;;;5538114;23;20483;-94
2022/05/02 09:17:23;;;;;;;11.97;11.27;;;;;;;;;;5138883;23;20502;-93
2022/05/02 09:20:42;;;;;;;11.97;10.90;;;;;;;;;;5029849;28;20503;-90
2022/05/02 09:23:34;;;;;;;12.83;11.67;;;;;;;;;;5043568;28;20480;-90
2022/05/02 09:26:46;;;;;;;11.93;10.83;;;;;;;;;;5025615;28;20440;-89
2022/05/02 09:29:51;;;;;;;12.30;11.30;;;;;;;;;;5029034;28;20466;-89
2022/05/02 09:32:56;;;;;;;12.23;11.33;;;;;;;;;;5033669;28;20620;-88
2022/05/02 09:36:15;;;;;;;14.43;12.50;;;;;;;;;;5022653;28;20540;-92
2022/05/02 09:39:21;;;;;;;12.17;11.37;;;;;;;;;;5005306;28;20413;-90
2022/05/02 09:42:10;;;;;;;12.20;11.40;;;;;;;;;;5027708;28;20439;-91
2022/05/02 09:51:17;;;;;;;11.47;10.60;;;;;;;;;;5012877;28;20507;-90
2022/05/02 09:56:37;;;;;;;11.20;10.37;;;;;;;;;;5023414;28;20427;-89
2022/05/02 09:57:41;;;;;;;15.73;10.97;;;;;;;;;;5030306;28;20457;-90
2022/05/02 10:01:10;;;;;;;10.63;10.10;;;;;;;;;;5020411;28;20429;-91
2022/05/02 10:04:00;;;;;;;11.50;10.60;;;;;;;;;;5019801;28;20431;-92
2022/05/02 10:07:12;;;;;;;11.10;10.23;;;;;;;;;;5036704;28;20438;-92
2022/05/02 10:10:13;;;;;;;11.57;10.40;;;;;;;;;;5007608;28;20487;-92
2022/05/02 10:13:41;;;;;;;11.07;10.27;;;;;;;;;;5007736;28;20432;-95
2022/05/02 10:17:05;;;;;;;10.63;9.97;;;;;;;;;;4903452;29;20476;-95
2022/05/02 10:20:18;;;;;;;10.53;9.70;;;;;;;;;;4868056;29;20494;-91
2022/05/02 10:26:15;;;;;;;9.50;8.80;;;;;;;;;;2696942;23;20551;-89
2022/05/02 10:32:28;;;;;;;11.47;10.77;;;;;;;;;;5163818;23;20505;-94
2022/05/02 10:35:37;;;;;;;10.80;10.10;;;;;;;;;;5186244;23;20479;-90
2022/05/02 10:44:21;;;;;;;10.97;10.37;;;;;;;;;;5557485;23;20499;-88
2022/05/02 10:47:36;;;;;;;10.03;9.37;;;;;;;;;;5257744;23;20603;-93
2022/05/02 11:55:13;;;;;;;10.37;9.67;;;;;;;;;;4861852;23;20509;-93
2022/05/02 11:57:58;;;;;;;9.53;8.83;;;;;;;;;;5425967;23;22350;-88
2022/05/02 12:12:37;;;;;;;8.37;7.93;;;;;;;;;;5010910;28;20494;-96
2022/05/02 12:15:15;;;;;;;9.03;8.57;;;;;;;;;;4971450;29;20426;-92
2022/05/02 12:21:04;;;;;;;9.83;9.13;;;;;;;;;;5075640;23;20459;-89
2022/05/02 12:45:38;;;;;;;9.30;8.60;;;;;;;;;;4906365;29;20467;-92
2022/05/02 12:49:13;;;;;;;10.07;9.30;;;;;;;;;;4586679;28;9999995;-92
2022/05/02 12:52:28;;;;;;;9.57;8.87;;;;;;;;;;5208002;23;20279;-95
2022/05/02 12:55:49;;;;;;;8.70;8.17;;;;;;;;;;5009477;28;20437;-95
2022/05/02 13:05:03;;;;;;;;;;;;;;;;;;;;;
2022/05/02 13:08:02;;;;;;;9.10;8.70;;;;;;;;;;5208393;23;20503;-92
2022/05/02 13:11:26;;;;;;;9.17;8.27;;;;;;;;;;4977270;28;20438;-93
2022/05/02 13:14:31;;;;;;;11.03;9.10;;;;;;;;;;4984221;28;20437;-90
2022/05/02 13:17:38;;;;;;;8.63;8.07;;;;;;;;;;4987251;28;20505;-93
2022/05/02 13:20:44;;;;;;;10.30;9.67;;;;;;;;;;4966945;29;20474;-91
2022/05/02 13:24:00;;;;;;;8.33;7.90;;;;;;;;;;4974148;28;20425;-93
2022/05/02 13:27:05;;;;;;;8.93;8.20;;;;;;;;;;4970354;29;20484;-91
2022/05/02 13:30:30;;;;;;;8.90;8.40;;;;;;;;;;4954578;28;20474;-92
2022/05/02 13:36:25;;;;;;;9.53;8.70;;;;;;;;;;5348380;23;20523;-93
2022/05/02 13:50:17;;;;;;;8.20;7.80;;;;;;;;;;5033873;23;20479;-92
2022/05/02 13:53:03;;;;;;;9.10;8.53;;;;;;;;;;5048068;28;20472;-88
2022/05/02 13:56:22;;;;;;;10.10;9.40;;;;;;;;;;5054380;28;20456;-92
2022/05/02 13:59:27;;;;;;;10.40;9.40;;;;;;;;;;5071557;28;20422;-93
2022/05/02 14:02:13;;;;;;;11.20;9.93;;;;;;;;;;5071133;28;20441;-90
2022/05/02 14:05:28;;;;;;;9.90;9.30;;;;;;;;;;5066273;28;20653;-91
2022/05/02 14:08:46;;;;;;;9.43;9.03;;;;;;;;;;5388385;22;21859;-92
2022/05/02 14:11:46;;;;;;;10.00;9.40;;;;;;;;;;5009904;28;20482;-89
2022/05/02 14:15:00;;;;;;;9.97;9.27;;;;;;;;;;5017751;28;20503;-92
2022/05/02 14:18:09;;;;;;;9.77;9.10;;;;;;;;;;5024436;28;20499;-93
2022/05/02 14:21:22;;;;;;;10.93;10.00;;;;;;;;;;4997849;28;20475;-90
2022/05/02 14:24:32;;;;;;;8.77;8.27;;;;;;;;;;5000978;28;20466;-93
2022/05/02 14:27:40;;;;;;;9.57;9.00;;;;;;;;;;5006543;28;20409;-93
2022/05/02 14:30:49;;;;;;;10.60;9.53;;;;;;;;;;5003657;28;20443;-92
2022/05/02 14:33:53;;;;;;;9.60;8.97;;;;;;;;;;5006540;28;20444;-93
2022/05/02 14:36:58;;;;;;;10.47;9.07;;;;;;;;;;5029343;28;20541;-92
2022/05/02 14:40:04;;;;;;;9.27;8.77;;;;;;;;;;4990785;28;20868;-93
2022/05/02 14:43:15;;;;;;;8.47;8.00;;;;;;;;;;5138311;23;20495;-90
2022/05/02 14:46:33;;;;;;;10.77;9.73;;;;;;;;;;5185988;23;20491;-90
2022/05/02 14:49:39;;;;;;;8.97;8.47;;;;;;;;;;5011280;28;20442;-92
2022/05/02 14:52:45;;;;;;;8.37;7.93;;;;;;;;;;5007828;28;20437;-90
2022/05/02 14:55:50;;;;;;;11.77;10.57;;;;;;;;;;5013339;28;20443;-92
2022/05/02 14:59:01;;;;;;;11.77;10.57;;;;;;;;;;5019432;28;20904;-90
2022/05/02 15:02:10;;;;;;;10.03;9.43;;;;;;;;;;5015097;28;20546;-90
2022/05/02 15:05:20;;;;;;;9.30;8.70;;;;;;;;;;5008154;28;20436;-89
2022/05/02 15:08:32;;;;;;;10.87;9.90;;;;;;;;;;5007827;28;20460;-86
2022/05/02 15:11:46;;;;;;;10.17;9.57;;;;;;;;;;4999043;28;20834;-86
2022/05/02 15:14:35;;;;;;;10.10;9.60;;;;;;;;;;5000320;28;20974;-89
2022/05/02 15:17:44;;;;;;;11.30;10.40;;;;;;;;;;4972209;28;20851;-92
2022/05/02 15:20:50;;;;;;;8.63;8.17;;;;;;;;;;4996406;28;20486;-88
2022/05/02 15:24:15;;;;;;;10.43;9.67;;;;;;;;;;5016131;28;20451;-90
2022/05/02 15:27:21;;;;;;;10.93;10.10;;;;;;;;;;5005682;28;20440;-90
2022/05/02 15:36:47;;;;;;;10.97;10.10;;;;;;;;;;5194419;23;20506;-92
2022/05/02 15:50:32;;;;;;;13.90;12.60;;;;;;;;;;5010733;28;20483;-91
2022/05/02 15:53:38;;;;;;;10.90;10.13;;;;;;;;;;4996344;28;20460;-91
2022/05/02 15:56:56;;;;;;;10.90;10.07;;;;;;;;;;4985692;28;20465;-91
2022/05/02 16:00:06;;;;;;;13.53;11.40;;;;;;;;;;4993988;23;20479;-93
2022/05/02 16:03:29;;;;;;;11.70;10.90;;;;;;;;;;5011424;28;20753;-94
2022/05/02 16:06:44;;;;;;;12.90;11.77;;;;;;;;;;5016797;28;20431;-93
2022/05/02 16:13:08;;;;;;;11.80;11.00;;;;;;;;;;5123060;23;20489;-91
2022/05/02 16:19:08;;;;;;;12.13;11.23;;;;;;;;;;5024235;28;20463;-93
2022/05/02 16:21:38;;;;;;;11.60;10.50;;;;;;;;;;5015680;28;20479;-91
2022/05/02 16:24:28;;;;;;;13.57;12.37;;;;;;;;;;4992443;28;20482;-94
2022/05/02 16:27:06;;;;;;;13.10;12.03;;;;;;;;;;4982618;28;20436;-90
2022/05/02 16:29:32;;;;;;;12.63;11.63;;;;;;;;;;4999016;28;20525;-89
2022/05/02 16:32:02;;;;;;;11.70;10.90;;;;;;;;;;4989876;28;20436;-90
2022/05/02 16:35:03;;;;;;;12.27;11.27;;;;;;;;;;4978878;28;21072;-89
2022/05/02 16:38:16;;;;;;;11.90;11.10;;;;;;;;;;5007099;28;20452;-91
2022/05/02 16:41:19;;;;;;;13.07;11.70;;;;;;;;;;4995425;28;20470;-90
2022/05/02 16:44:24;;;;;;;11.43;10.73;;;;;;;;;;4993702;28;20459;-89
2022/05/02 16:47:30;;;;;;;10.40;9.70;;;;;;;;;;4996401;28;20498;-89
2022/05/02 16:50:36;;;;;;;9.63;8.93;;;;;;;;;;5014889;28;20463;-88
2022/05/02 16:53:44;;;;;;;10.40;9.40;;;;;;;;;;5006973;28;20436;-88
2022/05/02 16:56:48;;;;;;;9.37;8.87;;;;;;;;;;5006572;28;20460;-89
2022/05/02 16:59:56;;;;;;;8.70;8.30;;;;;;;;;;4992087;28;20428;-89
2022/05/02 17:03:04;;;;;;;9.10;8.50;;;;;;;;;;5011051;28;20459;-88
2022/05/02 17:06:08;;;;;;;11.87;8.97;;;;;;;;;;4980086;28;20470;-89
2022/05/02 17:09:14;;;;;;;11.63;8.67;;;;;;;;;;4985420;28;20451;-89
2022/05/02 17:12:20;;;;;;;9.43;8.50;;;;;;;;;;4975039;28;20899;-91
2022/05/02 17:15:26;;;;;;;9.10;8.60;;;;;;;;;;4987974;28;20432;-88
2022/05/02 17:18:32;;;;;;;8.90;8.40;;;;;;;;;;4970916;28;20428;-89
2022/05/02 17:21:37;;;;;;;9.93;8.83;;;;;;;;;;4979716;28;21009;-89
2022/05/02 17:24:43;;;;;;;9.77;9.00;;;;;;;;;;4967901;28;20422;-90
2022/05/02 17:27:49;;;;;;;9.20;8.50;;;;;;;;;;4984133;28;21010;-89
2022/05/02 17:30:55;;;;;;;8.73;8.13;;;;;;;;;;4982599;28;20436;-89
2022/05/02 17:34:06;;;;;;;9.37;8.63;;;;;;;;;;4986925;28;21062;-86
2022/05/02 17:37:18;;;;;;;8.53;7.73;;;;;;;;;;4976533;28;20910;-88
2022/05/02 17:40:22;;;;;;;8.93;8.33;;;;;;;;;;4979316;28;20503;-89
2022/05/02 17:43:37;;;;;;;9.90;9.30;;;;;;;;;;4977760;28;20438;-89
2022/05/02 17:46:55;;;;;;;10.87;8.77;;;;;;;;;;4980484;28;21140;-88
2022/05/02 17:50:04;;;;;;;11.80;10.67;;;;;;;;;;4979438;28;20953;-90
2022/05/02 17:53:12;;;;;;;9.20;8.60;;;;;;;;;;4975591;28;20626;-89
2022/05/02 17:56:16;;;;;;;10.03;9.20;;;;;;;;;;4972002;28;20432;-89
2022/05/02 17:59:22;;;;;;;8.00;7.60;;;;;;;;;;4968244;28;20511;-91
2022/05/02 18:02:28;;;;;;;9.67;8.97;;;;;;;;;;4963570;28;20440;-90
2022/05/02 18:05:46;;;;;;;13.53;8.00;;;;;;;;;;4983944;28;20482;-88
2022/05/02 18:08:52;;;;;;;8.83;8.23;;;;;;;;;;4972984;28;20469;-90
2022/05/02 18:12:15;;;;;;;9.73;8.40;;;;;;;;;;4282257;28;10022498;-90
2022/05/02 18:15:37;;;;;;;9.07;8.33;;;;;;;;;;4976497;28;20687;-90
2022/05/02 18:18:26;;;;;;;9.80;7.90;;;;;;;;;;4967873;28;20445;-91
2022/05/02 18:21:38;;;;;;;9.07;8.27;;;;;;;;;;4978923;28;20846;-89
2022/05/02 19:22:15;;;;;;;6.90;6.60;;;;;;;;;;5560987;23;20466;-92
2022/05/02 19:28:01;;;;;;;7.17;6.67;;;;;;;;;;6049371;23;20416;31
2022/05/02 19:47:40;;;;;;;8.77;8.17;;;;;;;;;;1660434;23;20921;-90
2022/05/02 19:50:12;;;;;;;8.80;8.20;;;;;;;;;;4974494;28;20500;-89
2022/05/02 19:52:39;;;;;;;8.43;7.87;;;;;;;;;;4977664;28;20425;-90
2022/05/02 19:55:18;;;;;;;8.13;7.60;;;;;;;;;;4974041;28;20457;-91
2022/05/02 19:57:45;;;;;;;8.53;8.13;;;;;;;;;;4959056;29;20402;-91
2022/05/02 20:00:15;;;;;;;8.93;8.43;;;;;;;;;;4984434;28;20473;-90
2022/05/02 20:03:08;;;;;;;8.80;8.30;;;;;;;;;;4990644;28;20482;-90
2022/05/02 20:05:52;;;;;;;10.20;9.30;;;;;;;;;;4967621;28;20425;-89
2022/05/02 20:08:41;;;;;;;8.43;7.73;;;;;;;;;;4955000;29;20458;-91
2022/05/02 20:11:46;;;;;;;9.23;8.57;;;;;;;;;;4962869;29;20827;-89
2022/05/02 20:14:50;;;;;;;8.67;7.97;;;;;;;;;;4973619;28;20894;-90
2022/05/02 20:18:02;;;;;;;9.57;8.80;;;;;;;;;;4998632;28;20420;-91
2022/05/02 20:21:15;;;;;;;8.80;8.20;;;;;;;;;;4965398;29;20485;-90
2022/05/02 20:24:25;;;;;;;8.67;8.13;;;;;;;;;;4956943;29;20452;-89
2022/05/02 20:27:34;;;;;;;8.93;8.23;;;;;;;;;;4958741;28;20437;-90
2022/05/02 20:30:41;;;;;;;9.87;8.83;;;;;;;;;;4992887;28;20424;-91
2022/05/02 20:36:51;;;;;;;8.20;7.77;;;;;;;;;;4969309;28;20462;-88
2022/05/02 20:39:57;;;;;;;9.33;8.60;;;;;;;;;;4976938;28;21126;-90
2022/05/02 20:46:11;;;;;;;9.57;8.97;;;;;;;;;;4972809;28;20483;-88
2022/05/02 20:49:22;;;;;;;10.20;9.50;;;;;;;;;;4997571;28;20507;-91
2022/05/02 20:52:28;;;;;;;9.63;8.63;;;;;;;;;;4964909;28;20427;-91
2022/05/02 20:55:34;;;;;;;9.60;8.70;;;;;;;;;;5008907;28;20428;-90
2022/05/02 20:58:47;;;;;;;10.27;9.47;;;;;;;;;;5011012;28;20516;-91
2022/05/02 21:01:49;;;;;;;10.37;9.53;;;;;;;;;;5028673;28;20493;-89
2022/05/02 21:04:52;;;;;;;12.17;11.00;;;;;;;;;;5004350;28;20525;-90
2022/05/02 21:07:58;;;;;;;11.37;10.57;;;;;;;;;;4982509;28;21028;-89
2022/05/02 21:11:04;;;;;;;11.53;10.80;;;;;;;;;;4983417;28;20885;-90
2022/05/02 21:13:53;;;;;;;11.17;10.20;;;;;;;;;;4993665;28;20432;-90
2022/05/02 21:17:02;;;;;;;11.17;10.10;;;;;;;;;;4987656;28;20842;-90
2022/05/02 21:20:03;;;;;;;12.47;11.47;;;;;;;;;;4989621;28;20448;-89
2022/05/02 21:22:32;;;;;;;11.77;10.77;;;;;;;;;;4995020;28;20463;-90
2022/05/02 21:25:22;;;;;;;10.93;10.23;;;;;;;;;;4994144;28;20441;-90
2022/05/02 21:27:57;;;;;;;12.80;11.60;;;;;;;;;;4976858;28;20514;-89
2022/05/02 21:30:25;;;;;;;12.83;11.93;;;;;;;;;;4995608;28;20470;-88
2022/05/02 21:32:59;;;;;;;13.27;12.07;;;;;;;;;;4998676;28;20424;-88
2022/05/02 21:35:25;;;;;;;11.87;10.97;;;;;;;;;;4968849;28;20476;-89
2022/05/02 21:37:57;;;;;;;12.07;11.20;;;;;;;;;;4996761;28;20859;-89
2022/05/02 21:40:25;;;;;;;11.53;10.70;;;;;;;;;;4984030;28;20547;-90
2022/05/02 21:43:15;;;;;;;12.57;11.63;;;;;;;;;;4995034;28;20459;-90
2022/05/02 21:46:20;;;;;;;12.83;11.70;;;;;;;;;;4994654;28;20538;-89
2022/05/02 21:49:26;;;;;;;12.10;11.30;;;;;;;;;;4993622;28;20471;-90
2022/05/02 21:52:32;;;;;;;12.77;11.67;;;;;;;;;;4994446;28;20429;-90
2022/05/02 21:55:38;;;;;;;12.23;11.13;;;;;;;;;;4988529;28;20445;-91
2022/05/02 21:58:44;;;;;;;12.33;11.30;;;;;;;;;;4986612;28;20420;-90
2022/05/02 22:01:50;;;;;;;12.37;11.40;;;;;;;;;;5004243;28;20484;-90
2022/05/02 22:04:55;;;;;;;12.40;11.40;;;;;;;;;;5000322;28;20442;-90
2022/05/02 22:08:01;;;;;;;11.67;10.87;;;;;;;;;;4983513;28;20445;-91
2022/05/02 22:11:09;;;;;;;13.43;12.03;;;;;;;;;;4989016;28;20431;-90
2022/05/02 22:14:14;;;;;;;12.13;11.03;;;;;;;;;;5001697;28;20461;-90
2022/05/02 22:17:21;;;;;;;12.33;11.33;;;;;;;;;;4988010;28;20432;-89
2022/05/02 22:20:27;;;;;;;10.67;9.90;;;;;;;;;;4993404;28;20479;-89
2022/05/02 22:23:33;;;;;;;13.10;11.80;;;;;;;;;;4987799;28;20518;-89
2022/05/02 22:26:39;;;;;;;13.60;12.30;;;;;;;;;;4989132;28;20432;-89
2022/05/02 22:29:25;;;;;;;11.43;10.37;;;;;;;;;;5006751;28;20439;-90
2022/05/02 22:31:54;;;;;;;11.03;9.93;;;;;;;;;;4992485;28;20432;-89
2022/05/02 22:34:20;;;;;;;11.10;9.93;;;;;;;;;;4992510;28;20440;-89
2022/05/02 22:37:07;;;;;;;11.10;10.00;;;;;;;;;;4992743;28;20443;-89
2022/05/02 22:40:12;;;;;;;11.60;10.60;;;;;;;;;;4987390;28;20464;-89
2022/05/02 22:43:18;;;;;;;10.20;9.30;;;;;;;;;;4986773;28;20930;-89
2022/05/02 22:46:24;;;;;;;10.53;9.60;;;;;;;;;;4989956;28;20440;-90
2022/05/02 22:49:30;;;;;;;10.17;9.30;;;;;;;;;;4998962;28;20512;-90
2022/05/02 22:52:36;;;;;;;10.47;9.57;;;;;;;;;;4989557;28;20431;-90
2022/05/02 22:55:41;;;;;;;11.00;10.07;;;;;;;;;;5016872;28;20432;-89
2022/05/02 22:58:53;;;;;;;9.70;8.70;;;;;;;;;;4999074;28;20436;-90
2022/05/02 23:01:59;;;;;;;11.50;10.40;;;;;;;;;;4997896;28;20523;-90
2022/05/02 23:04:48;;;;;;;8.83;7.90;;;;;;;;;;4973964;28;20452;-89
2022/05/02 23:08:16;;;;;;;8.93;8.13;;;;;;;;;;4991469;28;20441;-92
2022/05/02 23:11:19;;;;;;;8.10;7.53;;;;;;;;;;4988357;28;20452;-89
2022/05/02 23:14:25;;;;;;;8.67;7.97;;;;;;;;;;4989852;28;20479;-88
2022/05/02 23:17:31;;;;;;;7.63;7.13;;;;;;;;;;4995842;28;20428;-89
2022/05/02 23:20:36;;;;;;;8.73;8.13;;;;;;;;;;5008708;28;20510;-89
2022/05/02 23:23:42;;;;;;;9.03;8.43;;;;;;;;;;5003112;28;20503;-89
2022/05/02 23:26:49;;;;;;;7.40;6.90;;;;;;;;;;5004218;28;20487;-90
2022/05/02 23:29:55;;;;;;;7.30;6.80;;;;;;;;;;4984728;28;20424;-91
2022/05/02 23:32:59;;;;;;;7.10;6.70;;;;;;;;;;4984567;28;20440;-90
2022/05/02 23:36:05;;;;;;;7.93;7.37;;;;;;;;;;4991986;28;21067;-90
2022/05/02 23:39:14;;;;;;;7.03;6.43;;;;;;;;;;4985086;28;21163;-91
2022/05/02 23:42:20;;;;;;;9.67;6.90;;;;;;;;;;4988049;28;20878;-90
2022/05/02 23:45:32;;;;;;;6.73;6.23;;;;;;;;;;4979555;28;20503;-91
2022/05/02 23:48:18;;;;;;;7.43;6.82;;;;;;;;;;4473159;28;15040510;-90
2022/05/02 23:51:24;;;;;;;6.37;6.07;;;;;;;;;;4993435;28;20201;-89
2022/05/02 23:54:16;;;;;;;7.43;6.73;;;;;;;;;;4991885;28;20436;-90
2022/05/02 23:57:22;;;;;;;7.00;6.60;;;;;;;;;;4993436;28;20468;-90
